sensor_id;sensor_type;location;lat;lon;timestamp;pressure;altitude;pressure_sealevel;temperature;humidity
72640;BME280;60683;51.730;8.762;2023-08-12T00:00:30;100482.53;;;20.26;81.71
72640;BME280;60683;51.730;8.762;2023-08-12T00:03:19;100485.13;;;20.12;82.69
72640;BME280;60683;51.730;8.762;2023-08-12T00:05:47;100487.91;;;20.07;83.66
72640;BME280;60683;51.730;8.762;2023-08-12T00:08:14;100477.56;;;20.04;84.01
72640;BME280;60683;51.730;8.762;2023-08-12T00:10:41;100481.38;;;20.03;84.35
72640;BME280;60683;51.730;8.762;2023-08-12T00:13:09;100483.16;;;19.89;85.10
72640;BME280;60683;51.730;8.762;2023-08-12T00:15:36;100473.97;;;19.80;85.67
72640;BME280;60683;51.730;8.762;2023-08-12T00:18:03;100480.22;;;19.80;85.97
72640;BME280;60683;51.730;8.762;2023-08-12T00:20:33;100474.53;;;19.77;86.03
72640;BME280;60683;51.730;8.762;2023-08-12T00:23:00;100476.22;;;19.73;86.44
72640;BME280;60683;51.730;8.762;2023-08-12T00:25:27;100477.75;;;19.84;86.36
72640;BME280;60683;51.730;8.762;2023-08-12T00:27:54;100471.66;;;19.92;85.49
72640;BME280;60683;51.730;8.762;2023-08-12T00:30:21;100472.91;;;20.05;85.01
72640;BME280;60683;51.730;8.762;2023-08-12T00:32:49;100476.88;;;20.17;83.91
72640;BME280;60683;51.730;8.762;2023-08-12T00:35:16;100512.56;;;20.26;82.98
72640;BME280;60683;51.730;8.762;2023-08-12T00:37:44;100513.88;;;20.58;81.11
72640;BME280;60683;51.730;8.762;2023-08-12T00:40:13;100522.00;;;20.39;81.72
72640;BME280;60683;51.730;8.762;2023-08-12T00:42:39;100517.31;;;20.44;79.84
72640;BME280;60683;51.730;8.762;2023-08-12T00:45:09;100520.16;;;20.58;78.61
72640;BME280;60683;51.730;8.762;2023-08-12T00:47:37;100515.63;;;20.72;78.19
72640;BME280;60683;51.730;8.762;2023-08-12T00:50:05;100524.72;;;20.87;76.75
72640;BME280;60683;51.730;8.762;2023-08-12T00:52:32;100524.66;;;20.92;76.57
72640;BME280;60683;51.730;8.762;2023-08-12T00:55:01;100524.31;;;20.98;75.83
72640;BME280;60683;51.730;8.762;2023-08-12T00:57:28;100526.16;;;21.03;76.15
72640;BME280;60683;51.730;8.762;2023-08-12T00:59:56;100528.53;;;21.09;76.21
72640;BME280;60683;51.730;8.762;2023-08-12T01:02:23;100533.19;;;21.09;77.11
72640;BME280;60683;51.730;8.762;2023-08-12T01:04:50;100529.81;;;21.17;77.15
72640;BME280;60683;51.730;8.762;2023-08-12T01:07:18;100520.41;;;21.28;76.86
72640;BME280;60683;51.730;8.762;2023-08-12T01:09:46;100523.66;;;21.30;77.39
72640;BME280;60683;51.730;8.762;2023-08-12T01:12:19;100532.84;;;21.34;77.49
72640;BME280;60683;51.730;8.762;2023-08-12T01:14:56;100529.31;;;21.34;78.23
72640;BME280;60683;51.730;8.762;2023-08-12T01:17:25;100517.25;;;21.35;78.83
72640;BME280;60683;51.730;8.762;2023-08-12T01:19:55;100511.09;;;21.29;79.61
72640;BME280;60683;51.730;8.762;2023-08-12T01:22:23;100506.50;;;21.25;79.80
72640;BME280;60683;51.730;8.762;2023-08-12T01:24:53;100500.81;;;21.21;80.08
72640;BME280;60683;51.730;8.762;2023-08-12T01:27:20;100492.13;;;21.14;80.36
72640;BME280;60683;51.730;8.762;2023-08-12T01:29:49;100497.88;;;21.12;80.50
72640;BME280;60683;51.730;8.762;2023-08-12T01:32:23;100505.94;;;21.04;80.50
72640;BME280;60683;51.730;8.762;2023-08-12T01:34:58;100508.50;;;20.95;80.91
72640;BME280;60683;51.730;8.762;2023-08-12T01:37:28;100518.63;;;20.95;81.01
72640;BME280;60683;51.730;8.762;2023-08-12T01:40:00;100511.34;;;20.85;81.43
72640;BME280;60683;51.730;8.762;2023-08-12T01:42:30;100514.75;;;20.77;81.87
72640;BME280;60683;51.730;8.762;2023-08-12T01:44:59;100519.75;;;20.70;82.15
72640;BME280;60683;51.730;8.762;2023-08-12T01:47:26;100523.34;;;20.65;82.72
72640;BME280;60683;51.730;8.762;2023-08-12T01:49:54;100527.25;;;20.59;82.78
72640;BME280;60683;51.730;8.762;2023-08-12T01:52:21;100524.63;;;20.49;83.68
72640;BME280;60683;51.730;8.762;2023-08-12T01:54:48;100540.50;;;20.47;83.97
72640;BME280;60683;51.730;8.762;2023-08-12T01:57:16;100543.25;;;20.42;84.83
72640;BME280;60683;51.730;8.762;2023-08-12T01:59:43;100548.50;;;20.38;85.99
72640;BME280;60683;51.730;8.762;2023-08-12T02:02:10;100545.19;;;20.36;86.65
72640;BME280;60683;51.730;8.762;2023-08-12T02:04:40;100547.16;;;20.31;88.10
72640;BME280;60683;51.730;8.762;2023-08-12T02:07:08;100538.00;;;20.22;89.37
72640;BME280;60683;51.730;8.762;2023-08-12T02:09:35;100532.88;;;20.15;90.26
72640;BME280;60683;51.730;8.762;2023-08-12T02:12:03;100527.13;;;20.16;90.41
72640;BME280;60683;51.730;8.762;2023-08-12T02:14:32;100534.81;;;20.09;91.67
72640;BME280;60683;51.730;8.762;2023-08-12T02:16:58;100530.44;;;20.13;92.15
72640;BME280;60683;51.730;8.762;2023-08-12T02:19:25;100547.03;;;20.17;92.38
72640;BME280;60683;51.730;8.762;2023-08-12T02:21:52;100543.47;;;20.22;92.80
72640;BME280;60683;51.730;8.762;2023-08-12T02:24:20;100546.00;;;20.13;95.22
72640;BME280;60683;51.730;8.762;2023-08-12T02:26:47;100545.78;;;20.04;96.85
72640;BME280;60683;51.730;8.762;2023-08-12T02:29:14;100537.44;;;19.91;98.78
72640;BME280;60683;51.730;8.762;2023-08-12T02:31:42;100534.25;;;19.78;100.00
72640;BME280;60683;51.730;8.762;2023-08-12T02:34:09;100533.78;;;19.71;100.00
72640;BME280;60683;51.730;8.762;2023-08-12T02:36:36;100540.63;;;19.69;100.00
72640;BME280;60683;51.730;8.762;2023-08-12T02:39:03;100542.53;;;19.68;100.00
72640;BME280;60683;51.730;8.762;2023-08-12T02:41:31;100531.91;;;19.67;100.00
72640;BME280;60683;51.730;8.762;2023-08-12T02:43:58;100532.50;;;19.59;100.00
72640;BME280;60683;51.730;8.762;2023-08-12T02:46:25;100539.06;;;19.58;100.00
72640;BME280;60683;51.730;8.762;2023-08-12T02:48:53;100543.16;;;19.55;100.00
72640;BME280;60683;51.730;8.762;2023-08-12T02:51:20;100535.81;;;19.56;100.00
72640;BME280;60683;51.730;8.762;2023-08-12T02:53:47;100528.19;;;19.53;100.00
72640;BME280;60683;51.730;8.762;2023-08-12T02:56:14;100538.00;;;19.48;100.00
72640;BME280;60683;51.730;8.762;2023-08-12T02:58:41;100546.19;;;19.48;100.00
72640;BME280;60683;51.730;8.762;2023-08-12T03:01:08;100545.38;;;19.53;100.00
72640;BME280;60683;51.730;8.762;2023-08-12T03:03:35;100544.00;;;19.45;100.00
72640;BME280;60683;51.730;8.762;2023-08-12T03:06:03;100550.00;;;19.47;100.00
72640;BME280;60683;51.730;8.762;2023-08-12T03:08:31;100544.00;;;19.45;100.00
72640;BME280;60683;51.730;8.762;2023-08-12T03:10:58;100536.66;;;19.46;100.00
72640;BME280;60683;51.730;8.762;2023-08-12T03:13:26;100537.75;;;19.45;100.00
72640;BME280;60683;51.730;8.762;2023-08-12T03:15:53;100532.53;;;19.48;100.00
72640;BME280;60683;51.730;8.762;2023-08-12T03:18:20;100531.25;;;19.36;100.00
72640;BME280;60683;51.730;8.762;2023-08-12T03:20:48;100537.81;;;19.35;100.00
72640;BME280;60683;51.730;8.762;2023-08-12T03:23:17;100533.19;;;19.30;100.00
72640;BME280;60683;51.730;8.762;2023-08-12T03:25:46;100524.22;;;19.25;100.00
72640;BME280;60683;51.730;8.762;2023-08-12T03:28:14;100522.28;;;19.30;100.00
72640;BME280;60683;51.730;8.762;2023-08-12T03:30:40;100519.38;;;19.22;100.00
72640;BME280;60683;51.730;8.762;2023-08-12T03:33:07;100528.88;;;19.24;100.00
72640;BME280;60683;51.730;8.762;2023-08-12T03:35:34;100527.44;;;19.37;100.00
72640;BME280;60683;51.730;8.762;2023-08-12T03:38:01;100534.25;;;19.34;100.00
72640;BME280;60683;51.730;8.762;2023-08-12T03:40:30;100533.72;;;19.32;100.00
72640;BME280;60683;51.730;8.762;2023-08-12T03:42:57;100535.06;;;19.35;100.00
72640;BME280;60683;51.730;8.762;2023-08-12T03:45:25;100539.47;;;19.31;100.00
72640;BME280;60683;51.730;8.762;2023-08-12T03:47:53;100533.81;;;19.22;100.00
72640;BME280;60683;51.730;8.762;2023-08-12T03:50:21;100535.94;;;19.25;100.00
72640;BME280;60683;51.730;8.762;2023-08-12T03:52:48;100541.09;;;19.32;100.00
72640;BME280;60683;51.730;8.762;2023-08-12T03:55:15;100542.72;;;19.33;100.00
72640;BME280;60683;51.730;8.762;2023-08-12T03:57:44;100544.66;;;19.27;100.00
72640;BME280;60683;51.730;8.762;2023-08-12T04:00:12;100543.03;;;19.26;100.00
72640;BME280;60683;51.730;8.762;2023-08-12T04:02:39;100541.41;;;19.25;100.00
72640;BME280;60683;51.730;8.762;2023-08-12T04:05:07;100533.22;;;19.25;100.00
72640;BME280;60683;51.730;8.762;2023-08-12T04:07:35;100543.84;;;19.27;100.00
72640;BME280;60683;51.730;8.762;2023-08-12T04:10:03;100534.84;;;19.26;100.00
72640;BME280;60683;51.730;8.762;2023-08-12T04:12:30;100528.28;;;19.32;100.00
72640;BME280;60683;51.730;8.762;2023-08-12T04:14:58;100523.34;;;19.34;100.00
72640;BME280;60683;51.730;8.762;2023-08-12T04:17:28;100530.41;;;19.40;100.00
72640;BME280;60683;51.730;8.762;2023-08-12T04:19:55;100528.81;;;19.34;100.00
72640;BME280;60683;51.730;8.762;2023-08-12T04:22:23;100526.09;;;19.34;100.00
72640;BME280;60683;51.730;8.762;2023-08-12T04:24:50;100518.72;;;19.35;100.00
72640;BME280;60683;51.730;8.762;2023-08-12T04:27:18;100512.44;;;19.34;100.00
72640;BME280;60683;51.730;8.762;2023-08-12T04:29:46;100508.63;;;19.35;100.00
72640;BME280;60683;51.730;8.762;2023-08-12T04:32:15;100504.00;;;19.36;100.00
72640;BME280;60683;51.730;8.762;2023-08-12T04:34:42;100509.19;;;19.32;100.00
72640;BME280;60683;51.730;8.762;2023-08-12T04:37:09;100505.09;;;19.35;100.00
72640;BME280;60683;51.730;8.762;2023-08-12T04:39:37;100505.91;;;19.35;100.00
72640;BME280;60683;51.730;8.762;2023-08-12T04:42:05;100493.91;;;19.36;100.00
72640;BME280;60683;51.730;8.762;2023-08-12T04:44:32;100494.97;;;19.40;100.00
72640;BME280;60683;51.730;8.762;2023-08-12T04:46:59;100492.00;;;19.37;100.00
72640;BME280;60683;51.730;8.762;2023-08-12T04:49:27;100495.81;;;19.36;100.00
72640;BME280;60683;51.730;8.762;2023-08-12T04:51:54;100487.88;;;19.39;100.00
72640;BME280;60683;51.730;8.762;2023-08-12T04:54:21;100482.44;;;19.39;100.00
72640;BME280;60683;51.730;8.762;2023-08-12T04:56:48;100479.47;;;19.36;100.00
72640;BME280;60683;51.730;8.762;2023-08-12T04:59:15;100479.75;;;19.34;100.00
72640;BME280;60683;51.730;8.762;2023-08-12T05:01:42;100468.59;;;19.31;100.00
72640;BME280;60683;51.730;8.762;2023-08-12T05:04:09;100470.22;;;19.32;100.00
72640;BME280;60683;51.730;8.762;2023-08-12T05:06:38;100467.25;;;19.28;100.00
72640;BME280;60683;51.730;8.762;2023-08-12T05:09:05;100471.34;;;19.26;100.00
72640;BME280;60683;51.730;8.762;2023-08-12T05:11:33;100450.94;;;19.23;100.00
72640;BME280;60683;51.730;8.762;2023-08-12T05:14:00;100452.53;;;19.24;100.00
72640;BME280;60683;51.730;8.762;2023-08-12T05:16:27;100448.72;;;19.25;100.00
72640;BME280;60683;51.730;8.762;2023-08-12T05:18:54;100449.81;;;19.24;100.00
72640;BME280;60683;51.730;8.762;2023-08-12T05:21:21;100439.78;;;19.20;100.00
72640;BME280;60683;51.730;8.762;2023-08-12T05:23:50;100447.41;;;19.23;100.00
72640;BME280;60683;51.730;8.762;2023-08-12T05:26:17;100447.69;;;19.21;100.00
72640;BME280;60683;51.730;8.762;2023-08-12T05:28:47;100454.19;;;19.25;100.00
72640;BME280;60683;51.730;8.762;2023-08-12T05:31:14;100448.78;;;19.20;100.00
72640;BME280;60683;51.730;8.762;2023-08-12T05:33:40;100445.25;;;19.20;100.00
72640;BME280;60683;51.730;8.762;2023-08-12T05:36:08;100440.06;;;19.18;100.00
72640;BME280;60683;51.730;8.762;2023-08-12T05:38:35;100440.06;;;19.18;100.00
72640;BME280;60683;51.730;8.762;2023-08-12T05:41:04;100442.81;;;19.18;100.00
72640;BME280;60683;51.730;8.762;2023-08-12T05:43:33;100435.19;;;19.15;100.00
72640;BME280;60683;51.730;8.762;2023-08-12T05:46:00;100436.28;;;19.14;100.00
72640;BME280;60683;51.730;8.762;2023-08-12T05:48:28;100421.00;;;19.18;100.00
72640;BME280;60683;51.730;8.762;2023-08-12T05:50:55;100419.09;;;19.18;100.00
72640;BME280;60683;51.730;8.762;2023-08-12T05:53:22;100415.81;;;19.22;100.00
72640;BME280;60683;51.730;8.762;2023-08-12T05:55:49;100412.47;;;19.25;100.00
72640;BME280;60683;51.730;8.762;2023-08-12T05:58:18;100420.97;;;19.23;100.00
72640;BME280;60683;51.730;8.762;2023-08-12T06:00:45;100408.63;;;19.31;100.00
72640;BME280;60683;51.730;8.762;2023-08-12T06:03:13;100408.34;;;19.32;100.00
72640;BME280;60683;51.730;8.762;2023-08-12T06:05:40;100407.25;;;19.33;100.00
72640;BME280;60683;51.730;8.762;2023-08-12T06:08:07;100400.69;;;19.34;100.00
72640;BME280;60683;51.730;8.762;2023-08-12T06:10:34;100399.84;;;19.39;100.00
72640;BME280;60683;51.730;8.762;2023-08-12T06:13:02;100406.03;;;19.49;100.00
72640;BME280;60683;51.730;8.762;2023-08-12T06:15:30;100405.91;;;19.65;100.00
72640;BME280;60683;51.730;8.762;2023-08-12T06:17:58;100407.03;;;19.64;100.00
72640;BME280;60683;51.730;8.762;2023-08-12T06:20:26;100401.03;;;19.62;100.00
72640;BME280;60683;51.730;8.762;2023-08-12T06:22:53;100408.03;;;19.73;100.00
72640;BME280;60683;51.730;8.762;2023-08-12T06:25:20;100398.66;;;19.79;100.00
72640;BME280;60683;51.730;8.762;2023-08-12T06:27:47;100394.75;;;19.90;100.00
72640;BME280;60683;51.730;8.762;2023-08-12T06:30:14;100388.13;;;19.96;100.00
72640;BME280;60683;51.730;8.762;2023-08-12T06:32:43;100386.50;;;19.95;100.00
72640;BME280;60683;51.730;8.762;2023-08-12T06:35:10;100388.03;;;20.06;100.00
72640;BME280;60683;51.730;8.762;2023-08-12T06:37:37;100387.50;;;20.04;100.00
72640;BME280;60683;51.730;8.762;2023-08-12T06:40:05;100380.13;;;20.05;100.00
72640;BME280;60683;51.730;8.762;2023-08-12T06:42:32;100377.63;;;20.08;100.00
72640;BME280;60683;51.730;8.762;2023-08-12T06:44:59;100373.97;;;20.18;100.00
72640;BME280;60683;51.730;8.762;2023-08-12T06:47:26;100382.75;;;20.15;100.00
72640;BME280;60683;51.730;8.762;2023-08-12T06:49:56;100376.53;;;20.09;100.00
72640;BME280;60683;51.730;8.762;2023-08-12T06:52:24;100383.50;;;20.21;100.00
72640;BME280;60683;51.730;8.762;2023-08-12T06:54:52;100378.78;;;20.26;100.00
72640;BME280;60683;51.730;8.762;2023-08-12T06:57:20;100381.16;;;20.33;100.00
72640;BME280;60683;51.730;8.762;2023-08-12T06:59:48;100376.84;;;20.51;100.00
72640;BME280;60683;51.730;8.762;2023-08-12T07:02:16;100375.03;;;20.65;100.00
72640;BME280;60683;51.730;8.762;2023-08-12T07:04:42;100373.63;;;20.86;100.00
72640;BME280;60683;51.730;8.762;2023-08-12T07:07:11;100367.03;;;21.06;100.00
72640;BME280;60683;51.730;8.762;2023-08-12T07:09:38;100373.41;;;20.82;100.00
72640;BME280;60683;51.730;8.762;2023-08-12T07:12:06;100371.19;;;20.85;100.00
72640;BME280;60683;51.730;8.762;2023-08-12T07:14:33;100371.31;;;20.93;100.00
72640;BME280;60683;51.730;8.762;2023-08-12T07:17:01;100376.72;;;20.98;100.00
72640;BME280;60683;51.730;8.762;2023-08-12T07:19:28;100374.66;;;21.09;100.00
72640;BME280;60683;51.730;8.762;2023-08-12T07:21:55;100376.72;;;21.17;100.00
72640;BME280;60683;51.730;8.762;2023-08-12T07:24:28;100368.00;;;21.15;100.00
72640;BME280;60683;51.730;8.762;2023-08-12T07:26:57;100366.81;;;21.02;100.00
72640;BME280;60683;51.730;8.762;2023-08-12T07:29:24;100366.00;;;21.02;100.00
72640;BME280;60683;51.730;8.762;2023-08-12T07:31:51;100358.63;;;21.21;100.00
72640;BME280;60683;51.730;8.762;2023-08-12T07:34:18;100361.03;;;21.55;100.00
72640;BME280;60683;51.730;8.762;2023-08-12T07:36:45;100357.72;;;21.58;98.73
72640;BME280;60683;51.730;8.762;2023-08-12T07:39:13;100368.38;;;21.87;99.38
72640;BME280;60683;51.730;8.762;2023-08-12T07:41:45;100361.91;;;21.97;97.82
72640;BME280;60683;51.730;8.762;2023-08-12T07:44:12;100368.53;;;22.09;98.04
72640;BME280;60683;51.730;8.762;2023-08-12T07:46:40;100367.50;;;22.33;96.16
72640;BME280;60683;51.730;8.762;2023-08-12T07:49:07;100362.19;;;22.50;92.78
72640;BME280;60683;51.730;8.762;2023-08-12T07:51:34;100354.84;;;22.73;92.18
72640;BME280;60683;51.730;8.762;2023-08-12T07:54:02;100359.88;;;22.93;89.81
72640;BME280;60683;51.730;8.762;2023-08-12T07:56:31;100355.66;;;23.09;90.87
72640;BME280;60683;51.730;8.762;2023-08-12T07:58:59;100351.34;;;23.39;88.06
72640;BME280;60683;51.730;8.762;2023-08-12T08:01:26;100347.19;;;23.51;86.33
72640;BME280;60683;51.730;8.762;2023-08-12T08:03:53;100340.03;;;23.63;84.97
72640;BME280;60683;51.730;8.762;2023-08-12T08:06:21;100340.25;;;23.75;83.80
72640;BME280;60683;51.730;8.762;2023-08-12T08:08:49;100344.81;;;23.80;82.56
72640;BME280;60683;51.730;8.762;2023-08-12T08:11:16;100331.16;;;23.66;82.61
72640;BME280;60683;51.730;8.762;2023-08-12T08:13:43;100340.47;;;23.57;85.22
72640;BME280;60683;51.730;8.762;2023-08-12T08:16:11;100341.81;;;23.37;85.08
72640;BME280;60683;51.730;8.762;2023-08-12T08:18:38;100331.91;;;23.27;84.81
72640;BME280;60683;51.730;8.762;2023-08-12T08:21:05;100326.22;;;23.24;86.15
72640;BME280;60683;51.730;8.762;2023-08-12T08:23:32;100324.25;;;23.16;85.39
72640;BME280;60683;51.730;8.762;2023-08-12T08:25:59;100310.28;;;23.03;86.41
72640;BME280;60683;51.730;8.762;2023-08-12T08:28:26;100315.19;;;22.93;88.17
72640;BME280;60683;51.730;8.762;2023-08-12T08:30:53;100311.09;;;22.82;88.66
72640;BME280;60683;51.730;8.762;2023-08-12T08:33:21;100301.47;;;22.70;89.56
72640;BME280;60683;51.730;8.762;2023-08-12T08:35:49;100292.59;;;22.51;92.55
72640;BME280;60683;51.730;8.762;2023-08-12T08:38:15;100297.97;;;22.42;93.22
72640;BME280;60683;51.730;8.762;2023-08-12T08:40:42;100298.16;;;22.24;93.91
72640;BME280;60683;51.730;8.762;2023-08-12T08:43:13;100313.47;;;22.25;95.21
72640;BME280;60683;51.730;8.762;2023-08-12T08:45:44;100304.44;;;22.24;97.49
72640;BME280;60683;51.730;8.762;2023-08-12T08:48:11;100326.13;;;22.21;97.79
72640;BME280;60683;51.730;8.762;2023-08-12T08:50:45;100322.28;;;22.22;97.83
72640;BME280;60683;51.730;8.762;2023-08-12T08:53:13;100316.31;;;22.20;97.91
72640;BME280;60683;51.730;8.762;2023-08-12T08:55:41;100308.47;;;22.27;99.33
72640;BME280;60683;51.730;8.762;2023-08-12T08:58:08;100314.16;;;22.30;100.00
72640;BME280;60683;51.730;8.762;2023-08-12T09:00:36;100311.69;;;22.42;100.00
72640;BME280;60683;51.730;8.762;2023-08-12T09:03:05;100318.34;;;22.50;100.00
72640;BME280;60683;51.730;8.762;2023-08-12T09:05:34;100317.25;;;22.51;98.32
72640;BME280;60683;51.730;8.762;2023-08-12T09:08:03;100324.97;;;22.49;95.85
72640;BME280;60683;51.730;8.762;2023-08-12T09:10:32;100318.06;;;22.88;95.92
72640;BME280;60683;51.730;8.762;2023-08-12T09:13:01;100318.13;;;23.19;94.68
72640;BME280;60683;51.730;8.762;2023-08-12T09:15:29;100303.53;;;23.09;88.90
72640;BME280;60683;51.730;8.762;2023-08-12T09:17:56;100314.13;;;23.02;90.52
72640;BME280;60683;51.730;8.762;2023-08-12T09:20:23;100318.56;;;23.12;89.67
72640;BME280;60683;51.730;8.762;2023-08-12T09:22:55;100320.81;;;23.10;90.87
72640;BME280;60683;51.730;8.762;2023-08-12T09:25:25;100318.94;;;23.50;87.08
72640;BME280;60683;51.730;8.762;2023-08-12T09:27:54;100309.75;;;23.77;84.18
72640;BME280;60683;51.730;8.762;2023-08-12T09:30:22;100318.50;;;23.96;83.19
72640;BME280;60683;51.730;8.762;2023-08-12T09:32:58;100313.22;;;24.08;83.00
72640;BME280;60683;51.730;8.762;2023-08-12T09:35:32;100311.41;;;23.95;81.78
72640;BME280;60683;51.730;8.762;2023-08-12T09:38:01;100300.81;;;24.20;80.33
72640;BME280;60683;51.730;8.762;2023-08-12T09:40:30;100298.94;;;24.29;78.70
72640;BME280;60683;51.730;8.762;2023-08-12T09:42:57;100287.81;;;24.42;78.51
72640;BME280;60683;51.730;8.762;2023-08-12T09:45:25;100280.38;;;24.43;76.71
72640;BME280;60683;51.730;8.762;2023-08-12T09:47:53;100284.88;;;24.73;75.99
72640;BME280;60683;51.730;8.762;2023-08-12T09:50:22;100263.03;;;25.03;74.93
72640;BME280;60683;51.730;8.762;2023-08-12T09:52:50;100271.72;;;25.31;74.16
72640;BME280;60683;51.730;8.762;2023-08-12T09:55:19;100269.50;;;24.98;73.40
72640;BME280;60683;51.730;8.762;2023-08-12T09:57:50;100278.69;;;25.20;70.90
72640;BME280;60683;51.730;8.762;2023-08-12T10:00:18;100265.91;;;25.62;73.96
72640;BME280;60683;51.730;8.762;2023-08-12T10:02:47;100280.31;;;25.67;72.31
72640;BME280;60683;51.730;8.762;2023-08-12T10:05:24;100279.38;;;25.55;71.28
72640;BME280;60683;51.730;8.762;2023-08-12T10:07:54;100275.53;;;25.47;70.59
72640;BME280;60683;51.730;8.762;2023-08-12T10:10:21;100273.31;;;25.32;71.56
72640;BME280;60683;51.730;8.762;2023-08-12T10:12:51;100271.38;;;25.32;72.06
72640;BME280;60683;51.730;8.762;2023-08-12T10:15:18;100264.22;;;25.40;70.20
72640;BME280;60683;51.730;8.762;2023-08-12T10:17:47;100269.72;;;25.40;71.17
72640;BME280;60683;51.730;8.762;2023-08-12T10:20:20;100256.78;;;25.40;70.55
72640;BME280;60683;51.730;8.762;2023-08-12T10:22:47;100265.03;;;25.40;74.70
72640;BME280;60683;51.730;8.762;2023-08-12T10:25:18;100269.72;;;25.87;72.16
72640;BME280;60683;51.730;8.762;2023-08-12T10:27:47;100261.81;;;25.77;70.26
72640;BME280;60683;51.730;8.762;2023-08-12T10:30:16;100254.91;;;26.21;70.42
72640;BME280;60683;51.730;8.762;2023-08-12T10:32:43;100254.16;;;26.12;67.23
72640;BME280;60683;51.730;8.762;2023-08-12T10:35:10;100244.25;;;26.40;67.24
72640;BME280;60683;51.730;8.762;2023-08-12T10:37:38;100248.91;;;26.19;67.36
72640;BME280;60683;51.730;8.762;2023-08-12T10:40:19;100243.41;;;26.19;68.04
72640;BME280;60683;51.730;8.762;2023-08-12T10:42:48;100233.38;;;25.93;67.84
72640;BME280;60683;51.730;8.762;2023-08-12T10:45:17;100237.13;;;25.51;68.96
72640;BME280;60683;51.730;8.762;2023-08-12T10:47:49;100244.00;;;25.36;70.70
72640;BME280;60683;51.730;8.762;2023-08-12T10:50:19;100247.00;;;24.96;74.82
72640;BME280;60683;51.730;8.762;2023-08-12T10:52:47;100241.22;;;24.81;74.38
72640;BME280;60683;51.730;8.762;2023-08-12T10:55:19;100252.38;;;24.75;74.45
72640;BME280;60683;51.730;8.762;2023-08-12T10:57:47;100244.41;;;25.08;74.41
72640;BME280;60683;51.730;8.762;2023-08-12T11:00:17;100242.09;;;25.28;73.46
72640;BME280;60683;51.730;8.762;2023-08-12T11:02:50;100243.88;;;25.62;72.95
72640;BME280;60683;51.730;8.762;2023-08-12T11:05:18;100237.59;;;25.53;70.40
72640;BME280;60683;51.730;8.762;2023-08-12T11:07:47;100253.56;;;25.30;70.80
72640;BME280;60683;51.730;8.762;2023-08-12T11:10:16;100258.66;;;25.02;71.59
72640;BME280;60683;51.730;8.762;2023-08-12T11:12:48;100260.13;;;24.65;72.47
72640;BME280;60683;51.730;8.762;2023-08-12T11:15:29;100266.28;;;24.45;73.19
72640;BME280;60683;51.730;8.762;2023-08-12T11:17:58;100261.13;;;24.43;73.38
72640;BME280;60683;51.730;8.762;2023-08-12T11:20:27;100250.91;;;24.78;72.90
72640;BME280;60683;51.730;8.762;2023-08-12T11:22:55;100260.72;;;25.22;70.31
72640;BME280;60683;51.730;8.762;2023-08-12T11:25:24;100252.97;;;25.54;68.22
72640;BME280;60683;51.730;8.762;2023-08-12T11:27:51;100251.66;;;25.60;67.80
72640;BME280;60683;51.730;8.762;2023-08-12T11:30:20;100246.78;;;25.74;68.36
72640;BME280;60683;51.730;8.762;2023-08-12T11:32:50;100252.31;;;25.65;67.64
72640;BME280;60683;51.730;8.762;2023-08-12T11:35:19;100255.13;;;25.86;67.19
72640;BME280;60683;51.730;8.762;2023-08-12T11:37:47;100250.97;;;25.80;65.27
72640;BME280;60683;51.730;8.762;2023-08-12T11:40:16;100260.16;;;25.84;66.05
72640;BME280;60683;51.730;8.762;2023-08-12T11:42:45;100262.53;;;25.65;66.01
72640;BME280;60683;51.730;8.762;2023-08-12T11:45:15;100270.16;;;25.51;64.67
72640;BME280;60683;51.730;8.762;2023-08-12T11:47:42;100259.06;;;25.38;63.92
72640;BME280;60683;51.730;8.762;2023-08-12T11:50:12;100268.16;;;25.30;64.73
72640;BME280;60683;51.730;8.762;2023-08-12T11:52:40;100250.28;;;25.45;65.06
72640;BME280;60683;51.730;8.762;2023-08-12T11:55:08;100255.41;;;25.64;64.43
72640;BME280;60683;51.730;8.762;2023-08-12T11:57:35;100244.50;;;25.76;63.89
72640;BME280;60683;51.730;8.762;2023-08-12T12:00:04;100256.91;;;26.12;62.40
72640;BME280;60683;51.730;8.762;2023-08-12T12:02:40;100256.25;;;26.15;60.09
72640;BME280;60683;51.730;8.762;2023-08-12T12:05:09;100243.06;;;26.83;58.22
72640;BME280;60683;51.730;8.762;2023-08-12T12:07:38;100242.25;;;27.03;58.04
72640;BME280;60683;51.730;8.762;2023-08-12T12:10:07;100235.38;;;26.88;58.35
72640;BME280;60683;51.730;8.762;2023-08-12T12:12:34;100254.81;;;26.38;59.69
72640;BME280;60683;51.730;8.762;2023-08-12T12:15:03;100232.66;;;25.76;60.43
72640;BME280;60683;51.730;8.762;2023-08-12T12:17:30;100242.44;;;25.56;60.87
72640;BME280;60683;51.730;8.762;2023-08-12T12:20:00;100227.41;;;25.53;62.01
72640;BME280;60683;51.730;8.762;2023-08-12T12:22:28;100229.34;;;25.53;62.11
72640;BME280;60683;51.730;8.762;2023-08-12T12:24:59;100229.72;;;25.81;60.64
72640;BME280;60683;51.730;8.762;2023-08-12T12:27:26;100223.97;;;25.94;60.09
72640;BME280;60683;51.730;8.762;2023-08-12T12:29:54;100225.34;;;26.30;59.96
72640;BME280;60683;51.730;8.762;2023-08-12T12:32:21;100224.13;;;26.60;58.04
72640;BME280;60683;51.730;8.762;2023-08-12T12:34:48;100219.41;;;26.61;58.11
72640;BME280;60683;51.730;8.762;2023-08-12T12:37:15;100210.78;;;26.50;57.64
72640;BME280;60683;51.730;8.762;2023-08-12T12:39:42;100203.63;;;26.28;59.05
72640;BME280;60683;51.730;8.762;2023-08-12T12:42:12;100213.94;;;26.40;58.60
72640;BME280;60683;51.730;8.762;2023-08-12T12:44:39;100214.91;;;26.56;59.16
72640;BME280;60683;51.730;8.762;2023-08-12T12:47:06;100223.38;;;26.10;59.68
72640;BME280;60683;51.730;8.762;2023-08-12T12:49:33;100213.78;;;25.65;61.17